sensor_id;sensor_type;location;lat;lon;timestamp;temperature;humidity
5027;DHT22;2532;52.480;13.354;2022-08-11T00:01:45;23.20;53.10
5027;DHT22;2532;52.480;13.354;2022-08-11T00:04:16;23.20;53.20
5027;DHT22;2532;52.480;13.354;2022-08-11T00:06:45;23.10;53.00
5027;DHT22;2532;52.480;13.354;2022-08-11T00:09:16;23.10;53.10
5027;DHT22;2532;52.480;13.354;2022-08-11T00:11:45;23.10;53.10
5027;DHT22;2532;52.480;13.354;2022-08-11T00:14:18;23.10;53.10
5027;DHT22;2532;52.480;13.354;2022-08-11T00:16:54;23.20;53.20
5027;DHT22;2532;52.480;13.354;2022-08-11T00:19:25;23.00;53.10
5027;DHT22;2532;52.480;13.354;2022-08-11T00:21:53;23.00;53.20
5027;DHT22;2532;52.480;13.354;2022-08-11T00:24:21;22.90;53.40
5027;DHT22;2532;52.480;13.354;2022-08-11T00:26:50;22.90;53.40
5027;DHT22;2532;52.480;13.354;2022-08-11T00:29:18;22.90;53.50
5027;DHT22;2532;52.480;13.354;2022-08-11T00:31:48;22.90;53.60
5027;DHT22;2532;52.480;13.354;2022-08-11T00:34:17;22.80;53.60
5027;DHT22;2532;52.480;13.354;2022-08-11T00:36:50;22.70;53.60
5027;DHT22;2532;52.480;13.354;2022-08-11T00:39:20;22.70;53.70
5027;DHT22;2532;52.480;13.354;2022-08-11T00:42:05;22.70;53.80
5027;DHT22;2532;52.480;13.354;2022-08-11T00:44:43;22.70;53.80
5027;DHT22;2532;52.480;13.354;2022-08-11T00:47:17;22.70;53.90
5027;DHT22;2532;52.480;13.354;2022-08-11T00:49:57;22.60;53.90
5027;DHT22;2532;52.480;13.354;2022-08-11T00:52:43;22.60;54.00
5027;DHT22;2532;52.480;13.354;2022-08-11T00:55:54;22.60;54.20
5027;DHT22;2532;52.480;13.354;2022-08-11T00:59:03;22.60;54.80
5027;DHT22;2532;52.480;13.354;2022-08-11T01:01:47;22.60;54.40
5027;DHT22;2532;52.480;13.354;2022-08-11T01:04:44;22.60;54.50
5027;DHT22;2532;52.480;13.354;2022-08-11T01:10:56;22.50;54.60
5027;DHT22;2532;52.480;13.354;2022-08-11T01:14:02;22.50;54.70
5027;DHT22;2532;52.480;13.354;2022-08-11T01:16:56;22.50;54.90
5027;DHT22;2532;52.480;13.354;2022-08-11T01:19:53;22.50;55.00
5027;DHT22;2532;52.480;13.354;2022-08-11T01:29:03;22.30;55.50
5027;DHT22;2532;52.480;13.354;2022-08-11T01:31:56;22.30;55.70
5027;DHT22;2532;52.480;13.354;2022-08-11T01:35:04;22.30;55.90
5027;DHT22;2532;52.480;13.354;2022-08-11T01:38:07;22.30;56.00
5027;DHT22;2532;52.480;13.354;2022-08-11T01:41:13;22.20;56.00
5027;DHT22;2532;52.480;13.354;2022-08-11T01:44:06;22.10;56.10
5027;DHT22;2532;52.480;13.354;2022-08-11T01:47:01;22.10;56.30
5027;DHT22;2532;52.480;13.354;2022-08-11T01:49:38;22.00;56.30
5027;DHT22;2532;52.480;13.354;2022-08-11T01:52:16;22.00;56.50
5027;DHT22;2532;52.480;13.354;2022-08-11T01:54:51;22.00;56.60
5027;DHT22;2532;52.480;13.354;2022-08-11T01:57:28;22.00;56.60
5027;DHT22;2532;52.480;13.354;2022-08-11T02:00:05;22.00;56.80
5027;DHT22;2532;52.480;13.354;2022-08-11T02:02:44;21.90;56.70
5027;DHT22;2532;52.480;13.354;2022-08-11T02:05:25;22.00;56.90
5027;DHT22;2532;52.480;13.354;2022-08-11T02:07:58;22.00;56.80
5027;DHT22;2532;52.480;13.354;2022-08-11T02:10:33;22.00;57.00
5027;DHT22;2532;52.480;13.354;2022-08-11T02:13:23;22.00;57.00
5027;DHT22;2532;52.480;13.354;2022-08-11T02:16:08;22.00;57.00
5027;DHT22;2532;52.480;13.354;2022-08-11T02:18:41;22.00;57.00
5027;DHT22;2532;52.480;13.354;2022-08-11T02:21:40;22.00;57.20
5027;DHT22;2532;52.480;13.354;2022-08-11T02:24:28;22.00;57.20
5027;DHT22;2532;52.480;13.354;2022-08-11T02:27:01;21.90;57.10
5027;DHT22;2532;52.480;13.354;2022-08-11T02:29:33;21.90;57.30
5027;DHT22;2532;52.480;13.354;2022-08-11T02:32:09;21.90;57.40
5027;DHT22;2532;52.480;13.354;2022-08-11T02:35:02;21.90;57.50
5027;DHT22;2532;52.480;13.354;2022-08-11T02:37:40;21.90;57.50
5027;DHT22;2532;52.480;13.354;2022-08-11T02:40:21;21.90;57.70
5027;DHT22;2532;52.480;13.354;2022-08-11T02:43:03;21.80;57.80
5027;DHT22;2532;52.480;13.354;2022-08-11T02:45:39;21.80;57.80
5027;DHT22;2532;52.480;13.354;2022-08-11T02:48:18;21.80;58.00
5027;DHT22;2532;52.480;13.354;2022-08-11T02:51:11;21.70;58.10
5027;DHT22;2532;52.480;13.354;2022-08-11T02:53:46;21.70;58.20
5027;DHT22;2532;52.480;13.354;2022-08-11T02:56:23;21.70;58.40
5027;DHT22;2532;52.480;13.354;2022-08-11T02:59:00;21.60;58.50
5027;DHT22;2532;52.480;13.354;2022-08-11T03:01:49;21.60;58.60
5027;DHT22;2532;52.480;13.354;2022-08-11T03:04:23;21.60;58.70
5027;DHT22;2532;52.480;13.354;2022-08-11T03:07:00;21.60;58.80
5027;DHT22;2532;52.480;13.354;2022-08-11T03:09:43;21.60;59.00
5027;DHT22;2532;52.480;13.354;2022-08-11T03:12:18;21.50;59.00
5027;DHT22;2532;52.480;13.354;2022-08-11T03:15:09;21.50;59.20
5027;DHT22;2532;52.480;13.354;2022-08-11T03:18:02;21.40;59.30
5027;DHT22;2532;52.480;13.354;2022-08-11T03:20:37;21.40;59.50
5027;DHT22;2532;52.480;13.354;2022-08-11T03:23:13;21.40;59.60
5027;DHT22;2532;52.480;13.354;2022-08-11T03:25:50;21.40;59.70
5027;DHT22;2532;52.480;13.354;2022-08-11T03:28:29;21.30;59.80
5027;DHT22;2532;52.480;13.354;2022-08-11T03:31:07;21.40;60.00
5027;DHT22;2532;52.480;13.354;2022-08-11T03:33:39;21.30;60.00
5027;DHT22;2532;52.480;13.354;2022-08-11T03:36:51;21.30;60.30
5027;DHT22;2532;52.480;13.354;2022-08-11T03:39:24;21.30;60.40
5027;DHT22;2532;52.480;13.354;2022-08-11T03:42:11;21.20;60.40
5027;DHT22;2532;52.480;13.354;2022-08-11T03:44:55;21.20;60.60
5027;DHT22;2532;52.480;13.354;2022-08-11T03:47:59;21.20;60.90
5027;DHT22;2532;52.480;13.354;2022-08-11T03:50:47;21.20;60.90
5027;DHT22;2532;52.480;13.354;2022-08-11T03:53:31;21.10;61.10
5027;DHT22;2532;52.480;13.354;2022-08-11T03:56:37;21.10;61.20
5027;DHT22;2532;52.480;13.354;2022-08-11T03:59:38;21.10;61.60
5027;DHT22;2532;52.480;13.354;2022-08-11T04:02:29;21.10;61.60
5027;DHT22;2532;52.480;13.354;2022-08-11T04:05:37;21.10;61.90
5027;DHT22;2532;52.480;13.354;2022-08-11T04:08:34;21.00;62.10
5027;DHT22;2532;52.480;13.354;2022-08-11T04:11:25;21.00;62.40
5027;DHT22;2532;52.480;13.354;2022-08-11T04:17:59;21.00;62.80
5027;DHT22;2532;52.480;13.354;2022-08-11T04:20:59;21.00;63.20
5027;DHT22;2532;52.480;13.354;2022-08-11T04:23:49;20.90;63.20
5027;DHT22;2532;52.480;13.354;2022-08-11T04:26:55;21.00;63.40
5027;DHT22;2532;52.480;13.354;2022-08-11T04:29:38;21.00;63.70
5027;DHT22;2532;52.480;13.354;2022-08-11T04:32:33;21.00;64.00
5027;DHT22;2532;52.480;13.354;2022-08-11T04:35:18;21.10;63.60
5027;DHT22;2532;52.480;13.354;2022-08-11T04:38:08;21.10;63.60
5027;DHT22;2532;52.480;13.354;2022-08-11T04:40:49;21.00;63.60
5027;DHT22;2532;52.480;13.354;2022-08-11T04:46:56;21.00;64.00
5027;DHT22;2532;52.480;13.354;2022-08-11T04:49:44;21.10;64.30
5027;DHT22;2532;52.480;13.354;2022-08-11T04:53:00;21.10;64.50
5027;DHT22;2532;52.480;13.354;2022-08-11T04:56:05;21.10;64.50
5027;DHT22;2532;52.480;13.354;2022-08-11T04:59:06;21.20;64.40
5027;DHT22;2532;52.480;13.354;2022-08-11T05:02:14;21.20;64.40
5027;DHT22;2532;52.480;13.354;2022-08-11T05:04:58;21.20;64.50
5027;DHT22;2532;52.480;13.354;2022-08-11T05:11:27;21.20;64.70
5027;DHT22;2532;52.480;13.354;2022-08-11T05:14:21;21.20;64.90
5027;DHT22;2532;52.480;13.354;2022-08-11T05:17:10;21.20;64.90
5027;DHT22;2532;52.480;13.354;2022-08-11T05:20:11;21.20;65.00
5027;DHT22;2532;52.480;13.354;2022-08-11T05:23:00;21.20;65.20
5027;DHT22;2532;52.480;13.354;2022-08-11T05:25:48;21.20;65.40
5027;DHT22;2532;52.480;13.354;2022-08-11T05:28:41;21.20;65.50
5027;DHT22;2532;52.480;13.354;2022-08-11T05:31:32;21.20;65.90
5027;DHT22;2532;52.480;13.354;2022-08-11T05:34:21;21.20;65.90
5027;DHT22;2532;52.480;13.354;2022-08-11T05:37:10;21.10;66.00
5027;DHT22;2532;52.480;13.354;2022-08-11T05:39:44;21.20;66.10
5027;DHT22;2532;52.480;13.354;2022-08-11T05:42:31;21.20;66.10
5027;DHT22;2532;52.480;13.354;2022-08-11T05:45:18;21.20;66.30
5027;DHT22;2532;52.480;13.354;2022-08-11T05:48:03;21.20;66.30
5027;DHT22;2532;52.480;13.354;2022-08-11T05:50:53;21.30;66.40
5027;DHT22;2532;52.480;13.354;2022-08-11T05:53:46;21.30;66.20
5027;DHT22;2532;52.480;13.354;2022-08-11T05:56:32;21.40;66.20
5027;DHT22;2532;52.480;13.354;2022-08-11T05:59:00;21.40;66.20
5027;DHT22;2532;52.480;13.354;2022-08-11T06:01:30;21.40;66.30
5027;DHT22;2532;52.480;13.354;2022-08-11T06:04:04;21.50;66.40
5027;DHT22;2532;52.480;13.354;2022-08-11T06:06:54;21.50;66.40
5027;DHT22;2532;52.480;13.354;2022-08-11T06:09:24;21.50;66.20
5027;DHT22;2532;52.480;13.354;2022-08-11T06:11:52;21.60;66.40
5027;DHT22;2532;52.480;13.354;2022-08-11T06:14:21;21.70;66.20
5027;DHT22;2532;52.480;13.354;2022-08-11T06:16:54;21.70;66.40
5027;DHT22;2532;52.480;13.354;2022-08-11T06:19:23;21.90;66.40
5027;DHT22;2532;52.480;13.354;2022-08-11T06:21:56;22.00;65.80
5027;DHT22;2532;52.480;13.354;2022-08-11T06:24:24;22.00;65.50
5027;DHT22;2532;52.480;13.354;2022-08-11T06:26:54;22.10;65.30
5027;DHT22;2532;52.480;13.354;2022-08-11T06:29:22;22.20;65.10
5027;DHT22;2532;52.480;13.354;2022-08-11T06:31:56;22.30;64.90
5027;DHT22;2532;52.480;13.354;2022-08-11T06:34:47;22.40;64.80
5027;DHT22;2532;52.480;13.354;2022-08-11T06:37:20;22.50;64.80
5027;DHT22;2532;52.480;13.354;2022-08-11T06:39:55;22.60;64.50
5027;DHT22;2532;52.480;13.354;2022-08-11T06:42:37;22.70;64.40
5027;DHT22;2532;52.480;13.354;2022-08-11T06:45:18;22.70;64.40
5027;DHT22;2532;52.480;13.354;2022-08-11T06:47:52;22.80;64.20
5027;DHT22;2532;52.480;13.354;2022-08-11T06:50:21;22.90;63.80
5027;DHT22;2532;52.480;13.354;2022-08-11T06:53:07;23.00;63.60
5027;DHT22;2532;52.480;13.354;2022-08-11T06:55:40;23.00;63.70
5027;DHT22;2532;52.480;13.354;2022-08-11T06:58:27;23.10;63.50
5027;DHT22;2532;52.480;13.354;2022-08-11T07:01:35;23.20;63.50
5027;DHT22;2532;52.480;13.354;2022-08-11T07:04:07;23.30;63.20
5027;DHT22;2532;52.480;13.354;2022-08-11T07:06:44;23.50;62.80
5027;DHT22;2532;52.480;13.354;2022-08-11T07:12:48;23.70;62.30
5027;DHT22;2532;52.480;13.354;2022-08-11T07:15:34;23.80;61.30
5027;DHT22;2532;52.480;13.354;2022-08-11T07:18:10;24.00;61.00
5027;DHT22;2532;52.480;13.354;2022-08-11T07:21:10;24.10;61.60
5027;DHT22;2532;52.480;13.354;2022-08-11T07:23:57;24.20;60.50
5027;DHT22;2532;52.480;13.354;2022-08-11T07:26:47;24.30;60.00
5027;DHT22;2532;52.480;13.354;2022-08-11T07:29:32;24.30;59.70
5027;DHT22;2532;52.480;13.354;2022-08-11T07:32:09;24.40;59.50
5027;DHT22;2532;52.480;13.354;2022-08-11T07:34:39;24.50;59.10
5027;DHT22;2532;52.480;13.354;2022-08-11T07:37:15;24.60;59.00
5027;DHT22;2532;52.480;13.354;2022-08-11T07:39:45;24.70;58.80
5027;DHT22;2532;52.480;13.354;2022-08-11T07:42:15;24.80;58.70
5027;DHT22;2532;52.480;13.354;2022-08-11T07:44:43;24.80;58.40
5027;DHT22;2532;52.480;13.354;2022-08-11T07:47:29;24.90;58.20
5027;DHT22;2532;52.480;13.354;2022-08-11T07:50:14;25.00;58.70
5027;DHT22;2532;52.480;13.354;2022-08-11T07:53:00;25.10;58.80
5027;DHT22;2532;52.480;13.354;2022-08-11T07:55:28;25.20;57.60
5027;DHT22;2532;52.480;13.354;2022-08-11T07:57:57;25.30;57.20
5027;DHT22;2532;52.480;13.354;2022-08-11T08:00:44;25.40;56.80
5027;DHT22;2532;52.480;13.354;2022-08-11T08:03:29;25.50;57.00
5027;DHT22;2532;52.480;13.354;2022-08-11T08:06:14;25.60;56.80
5027;DHT22;2532;52.480;13.354;2022-08-11T08:09:01;25.70;56.90
5027;DHT22;2532;52.480;13.354;2022-08-11T08:11:45;25.70;56.70
5027;DHT22;2532;52.480;13.354;2022-08-11T08:14:30;25.80;56.00
5027;DHT22;2532;52.480;13.354;2022-08-11T08:17:15;25.90;55.30
5027;DHT22;2532;52.480;13.354;2022-08-11T08:19:59;25.90;54.80
5027;DHT22;2532;52.480;13.354;2022-08-11T08:22:27;26.00;54.90
5027;DHT22;2532;52.480;13.354;2022-08-11T08:24:56;26.10;54.80
5027;DHT22;2532;52.480;13.354;2022-08-11T08:27:23;26.20;54.50
5027;DHT22;2532;52.480;13.354;2022-08-11T08:29:50;26.20;54.40
5027;DHT22;2532;52.480;13.354;2022-08-11T08:32:38;26.40;54.30
5027;DHT22;2532;52.480;13.354;2022-08-11T08:35:06;26.50;53.60
5027;DHT22;2532;52.480;13.354;2022-08-11T08:37:36;26.50;52.70
5027;DHT22;2532;52.480;13.354;2022-08-11T08:40:08;26.60;52.70
5027;DHT22;2532;52.480;13.354;2022-08-11T08:42:40;26.70;53.30
5027;DHT22;2532;52.480;13.354;2022-08-11T08:45:09;26.80;53.20
5027;DHT22;2532;52.480;13.354;2022-08-11T08:47:41;26.80;52.80
5027;DHT22;2532;52.480;13.354;2022-08-11T08:50:10;26.90;52.90
5027;DHT22;2532;52.480;13.354;2022-08-11T08:52:41;27.10;52.60
5027;DHT22;2532;52.480;13.354;2022-08-11T08:55:16;27.10;51.90
5027;DHT22;2532;52.480;13.354;2022-08-11T08:57:44;27.20;50.60
5027;DHT22;2532;52.480;13.354;2022-08-11T09:00:14;27.30;51.20
5027;DHT22;2532;52.480;13.354;2022-08-11T09:02:42;27.30;50.90
5027;DHT22;2532;52.480;13.354;2022-08-11T09:05:10;27.40;50.70
5027;DHT22;2532;52.480;13.354;2022-08-11T09:07:37;27.50;50.30
5027;DHT22;2532;52.480;13.354;2022-08-11T09:10:06;27.50;50.00
5027;DHT22;2532;52.480;13.354;2022-08-11T09:12:37;27.50;50.00
5027;DHT22;2532;52.480;13.354;2022-08-11T09:15:06;27.60;49.80
5027;DHT22;2532;52.480;13.354;2022-08-11T09:17:37;27.70;48.90
5027;DHT22;2532;52.480;13.354;2022-08-11T09:20:06;27.80;48.60
5027;DHT22;2532;52.480;13.354;2022-08-11T09:22:35;27.80;48.90
5027;DHT22;2532;52.480;13.354;2022-08-11T09:25:21;27.90;48.00
5027;DHT22;2532;52.480;13.354;2022-08-11T09:28:09;28.00;48.20
5027;DHT22;2532;52.480;13.354;2022-08-11T09:30:39;28.00;47.80
5027;DHT22;2532;52.480;13.354;2022-08-11T09:33:09;28.10;47.20
5027;DHT22;2532;52.480;13.354;2022-08-11T09:35:38;28.10;46.90
5027;DHT22;2532;52.480;13.354;2022-08-11T09:38:09;28.10;47.10
5027;DHT22;2532;52.480;13.354;2022-08-11T09:40:54;28.10;46.80
5027;DHT22;2532;52.480;13.354;2022-08-11T09:43:23;28.10;46.50
5027;DHT22;2532;52.480;13.354;2022-08-11T09:46:08;28.10;46.50
5027;DHT22;2532;52.480;13.354;2022-08-11T09:48:39;28.10;46.70
5027;DHT22;2532;52.480;13.354;2022-08-11T09:51:07;28.20;46.90
5027;DHT22;2532;52.480;13.354;2022-08-11T09:53:38;28.20;46.60
5027;DHT22;2532;52.480;13.354;2022-08-11T09:56:10;28.30;45.70
5027;DHT22;2532;52.480;13.354;2022-08-11T09:58:57;28.40;45.10
5027;DHT22;2532;52.480;13.354;2022-08-11T10:01:28;28.50;44.70
5027;DHT22;2532;52.480;13.354;2022-08-11T10:03:59;28.50;44.70
5027;DHT22;2532;52.480;13.354;2022-08-11T10:06:28;28.60;44.60
5027;DHT22;2532;52.480;13.354;2022-08-11T10:09:19;28.60;44.70
5027;DHT22;2532;52.480;13.354;2022-08-11T10:11:47;28.60;44.70
5027;DHT22;2532;52.480;13.354;2022-08-11T10:14:17;28.60;44.20
5027;DHT22;2532;52.480;13.354;2022-08-11T10:17:05;28.70;44.00
5027;DHT22;2532;52.480;13.354;2022-08-11T10:19:33;28.80;43.90
5027;DHT22;2532;52.480;13.354;2022-08-11T10:22:04;28.90;44.30
5027;DHT22;2532;52.480;13.354;2022-08-11T10:24:52;29.00;44.40
5027;DHT22;2532;52.480;13.354;2022-08-11T10:27:38;29.10;43.50
5027;DHT22;2532;52.480;13.354;2022-08-11T10:30:10;29.20;43.10
5027;DHT22;2532;52.480;13.354;2022-08-11T10:32:56;29.40;42.80
5027;DHT22;2532;52.480;13.354;2022-08-11T10:35:42;29.40;42.50
5027;DHT22;2532;52.480;13.354;2022-08-11T10:38:12;29.50;43.20
5027;DHT22;2532;52.480;13.354;2022-08-11T10:40:40;29.60;42.80
5027;DHT22;2532;52.480;13.354;2022-08-11T10:43:11;29.60;42.00
5027;DHT22;2532;52.480;13.354;2022-08-11T10:45:40;29.50;41.90
5027;DHT22;2532;52.480;13.354;2022-08-11T10:48:27;29.50;42.10
5027;DHT22;2532;52.480;13.354;2022-08-11T10:50:55;29.40;42.10
5027;DHT22;2532;52.480;13.354;2022-08-11T10:53:40;29.30;42.10
5027;DHT22;2532;52.480;13.354;2022-08-11T10:56:27;29.20;41.90
5027;DHT22;2532;52.480;13.354;2022-08-11T10:59:12;29.20;42.10
5027;DHT22;2532;52.480;13.354;2022-08-11T11:01:42;29.20;42.40
5027;DHT22;2532;52.480;13.354;2022-08-11T11:04:12;29.20;42.30
5027;DHT22;2532;52.480;13.354;2022-08-11T11:06:48;29.30;42.40
5027;DHT22;2532;52.480;13.354;2022-08-11T11:09:17;29.40;42.40
5027;DHT22;2532;52.480;13.354;2022-08-11T11:11:48;29.40;41.20
5027;DHT22;2532;52.480;13.354;2022-08-11T11:14:35;29.50;41.90
5027;DHT22;2532;52.480;13.354;2022-08-11T11:17:28;29.60;41.70
5027;DHT22;2532;52.480;13.354;2022-08-11T11:20:18;29.70;41.90
5027;DHT22;2532;52.480;13.354;2022-08-11T11:22:49;29.80;41.40
5027;DHT22;2532;52.480;13.354;2022-08-11T11:25:24;30.00;41.40
5027;DHT22;2532;52.480;13.354;2022-08-11T11:28:28;30.00;41.40
5027;DHT22;2532;52.480;13.354;2022-08-11T11:31:10;30.00;41.10
5027;DHT22;2532;52.480;13.354;2022-08-11T11:33:57;30.00;40.80
5027;DHT22;2532;52.480;13.354;2022-08-11T11:36:33;30.00;39.90
5027;DHT22;2532;52.480;13.354;2022-08-11T11:39:06;30.10;39.90
5027;DHT22;2532;52.480;13.354;2022-08-11T11:41:34;30.10;39.80
5027;DHT22;2532;52.480;13.354;2022-08-11T11:44:02;30.10;39.60
5027;DHT22;2532;52.480;13.354;2022-08-11T11:46:30;30.10;39.60
5027;DHT22;2532;52.480;13.354;2022-08-11T11:49:00;30.10;39.80
5027;DHT22;2532;52.480;13.354;2022-08-11T11:51:35;30.10;40.50
5027;DHT22;2532;52.480;13.354;2022-08-11T11:54:03;30.00;40.70
5027;DHT22;2532;52.480;13.354;2022-08-11T11:56:32;30.00;41.10
5027;DHT22;2532;52.480;13.354;2022-08-11T11:59:01;29.90;41.20
5027;DHT22;2532;52.480;13.354;2022-08-11T12:01:46;29.80;41.40
5027;DHT22;2532;52.480;13.354;2022-08-11T12:04:15;29.90;41.90
5027;DHT22;2532;52.480;13.354;2022-08-11T12:06:44;29.90;41.20
5027;DHT22;2532;52.480;13.354;2022-08-11T12:09:12;29.90;41.00
5027;DHT22;2532;52.480;13.354;2022-08-11T12:11:43;30.00;40.90
5027;DHT22;2532;52.480;13.354;2022-08-11T12:14:28;30.10;40.90
5027;DHT22;2532;52.480;13.354;2022-08-11T12:16:56;30.30;40.60
5027;DHT22;2532;52.480;13.354;2022-08-11T12:19:26;30.30;40.50
5027;DHT22;2532;52.480;13.354;2022-08-11T12:21:54;30.40;40.60
5027;DHT22;2532;52.480;13.354;2022-08-11T12:24:40;30.50;40.70
5027;DHT22;2532;52.480;13.354;2022-08-11T12:27:26;30.70;39.50
5027;DHT22;2532;52.480;13.354;2022-08-11T12:29:57;30.70;39.20
5027;DHT22;2532;52.480;13.354;2022-08-11T12:32:26;30.70;38.80
5027;DHT22;2532;52.480;13.354;2022-08-11T12:34:56;30.70;38.90
5027;DHT22;2532;52.480;13.354;2022-08-11T12:37:27;30.70;38.90
5027;DHT22;2532;52.480;13.354;2022-08-11T12:39:58;30.70;38.90
5027;DHT22;2532;52.480;13.354;2022-08-11T12:42:44;30.70;38.50
5027;DHT22;2532;52.480;13.354;2022-08-11T12:45:30;30.50;38.70
5027;DHT22;2532;52.480;13.354;2022-08-11T12:48:03;30.40;38.60
5027;DHT22;2532;52.480;13.354;2022-08-11T12:50:54;30.40;38.60
5027;DHT22;2532;52.480;13.354;2022-08-11T12:53:43;30.40;38.70
5027;DHT22;2532;52.480;13.354;2022-08-11T12:56:11;30.50;38.60
5027;DHT22;2532;52.480;13.354;2022-08-11T12:58:57;30.60;38.20
5027;DHT22;2532;52.480;13.354;2022-08-11T13:01:42;30.70;38.70
5027;DHT22;2532;52.480;13.354;2022-08-11T13:04:28;30.80;37.90
5027;DHT22;2532;52.480;13.354;2022-08-11T13:07:15;30.90;37.80
5027;DHT22;2532;52.480;13.354;2022-08-11T13:09:44;31.00;37.50
5027;DHT22;2532;52.480;13.354;2022-08-11T13:12:12;31.10;37.00
5027;DHT22;2532;52.480;13.354;2022-08-11T13:14:57;31.20;37.70
5027;DHT22;2532;52.480;13.354;2022-08-11T13:17:26;31.30;36.60
5027;DHT22;2532;52.480;13.354;2022-08-11T13:19:56;31.40;36.60
5027;DHT22;2532;52.480;13.354;2022-08-11T13:22:25;31.40;36.10
5027;DHT22;2532;52.480;13.354;2022-08-11T13:24:53;31.50;35.90
5027;DHT22;2532;52.480;13.354;2022-08-11T13:27:22;31.70;35.40
5027;DHT22;2532;52.480;13.354;2022-08-11T13:29:50;31.80;35.50
5027;DHT22;2532;52.480;13.354;2022-08-11T13:32:39;31.90;36.20
5027;DHT22;2532;52.480;13.354;2022-08-11T13:35:08;32.00;35.70
5027;DHT22;2532;52.480;13.354;2022-08-11T13:37:37;32.10;34.70
5027;DHT22;2532;52.480;13.354;2022-08-11T13:40:05;32.20;34.80
5027;DHT22;2532;52.480;13.354;2022-08-11T13:42:32;32.20;34.60
5027;DHT22;2532;52.480;13.354;2022-08-11T13:45:00;32.30;34.80
5027;DHT22;2532;52.480;13.354;2022-08-11T13:47:28;32.30;35.00
5027;DHT22;2532;52.480;13.354;2022-08-11T13:49:55;32.40;34.90
5027;DHT22;2532;52.480;13.354;2022-08-11T13:52:23;32.40;35.00
5027;DHT22;2532;52.480;13.354;2022-08-11T13:54:53;32.40;34.50
5027;DHT22;2532;52.480;13.354;2022-08-11T13:57:21;32.40;34.70
5027;DHT22;2532;52.480;13.354;2022-08-11T13:59:52;32.30;34.80
5027;DHT22;2532;52.480;13.354;2022-08-11T14:02:35;32.20;34.90
5027;DHT22;2532;52.480;13.354;2022-08-11T14:05:07;32.00;34.90
5027;DHT22;2532;52.480;13.354;2022-08-11T14:07:38;32.00;35.60
5027;DHT22;2532;52.480;13.354;2022-08-11T14:10:08;32.10;35.30
5027;DHT22;2532;52.480;13.354;2022-08-11T14:12:37;32.20;35.00
5027;DHT22;2532;52.480;13.354;2022-08-11T14:15:28;32.40;34.50
5027;DHT22;2532;52.480;13.354;2022-08-11T14:17:59;32.40;34.00
5027;DHT22;2532;52.480;13.354;2022-08-11T14:20:31;32.40;33.60
5027;DHT22;2532;52.480;13.354;2022-08-11T14:23:26;32.40;33.30
5027;DHT22;2532;52.480;13.354;2022-08-11T14:25:55;32.30;33.10
5027;DHT22;2532;52.480;13.354;2022-08-11T14:28:40;32.30;33.60
5027;DHT22;2532;52.480;13.354;2022-08-11T14:31:07;32.40;33.20
5027;DHT22;2532;52.480;13.354;2022-08-11T14:33:35;32.40;34.00
5027;DHT22;2532;52.480;13.354;2022-08-11T14:36:04;32.60;32.80
5027;DHT22;2532;52.480;13.354;2022-08-11T14:38:33;32.80;33.30
5027;DHT22;2532;52.480;13.354;2022-08-11T14:41:02;33.00;33.70
5027;DHT22;2532;52.480;13.354;2022-08-11T14:43:47;33.20;32.60
5027;DHT22;2532;52.480;13.354;2022-08-11T14:46:33;33.40;32.40
5027;DHT22;2532;52.480;13.354;2022-08-11T14:49:18;33.50;31.80
5027;DHT22;2532;52.480;13.354;2022-08-11T14:51:47;33.60;31.30
5027;DHT22;2532;52.480;13.354;2022-08-11T14:54:15;33.60;31.00
5027;DHT22;2532;52.480;13.354;2022-08-11T14:57:01;33.50;30.80
5027;DHT22;2532;52.480;13.354;2022-08-11T14:59:29;33.40;30.90
5027;DHT22;2532;52.480;13.354;2022-08-11T15:01:56;33.30;31.10
5027;DHT22;2532;52.480;13.354;2022-08-11T15:04:47;33.20;31.00
5027;DHT22;2532;52.480;13.354;2022-08-11T15:07:15;33.20;31.00
5027;DHT22;2532;52.480;13.354;2022-08-11T15:09:43;33.10;31.20
5027;DHT22;2532;52.480;13.354;2022-08-11T15:12:13;33.10;30.90
5027;DHT22;2532;52.480;13.354;2022-08-11T15:14:43;33.20;31.30
5027;DHT22;2532;52.480;13.354;2022-08-11T15:17:29;33.40;31.60
5027;DHT22;2532;52.480;13.354;2022-08-11T15:19:59;33.40;30.50
5027;DHT22;2532;52.480;13.354;2022-08-11T15:22:45;33.50;30.60
5027;DHT22;2532;52.480;13.354;2022-08-11T15:25:30;33.50;30.60
5027;DHT22;2532;52.480;13.354;2022-08-11T15:28:01;33.60;30.50
5027;DHT22;2532;52.480;13.354;2022-08-11T15:30:46;33.60;30.40
5027;DHT22;2532;52.480;13.354;2022-08-11T15:33:34;33.70;30.30
5027;DHT22;2532;52.480;13.354;2022-08-11T15:36:22;33.70;30.00
5027;DHT22;2532;52.480;13.354;2022-08-11T15:39:12;33.70;29.90
5027;DHT22;2532;52.480;13.354;2022-08-11T15:41:46;33.60;29.80
5027;DHT22;2532;52.480;13.354;2022-08-11T15:44:36;33.60;29.90
5027;DHT22;2532;52.480;13.354;2022-08-11T15:47:35;33.60;29.70
5027;DHT22;2532;52.480;13.354;2022-08-11T15:50:04;33.70;29.70
5027;DHT22;2532;52.480;13.354;2022-08-11T15:52:34;33.70;29.90
5027;DHT22;2532;52.480;13.354;2022-08-11T15:55:07;33.90;29.50
5027;DHT22;2532;52.480;13.354;2022-08-11T15:57:36;33.80;29.20
5027;DHT22;2532;52.480;13.354;2022-08-11T16:00:23;33.80;29.10
5027;DHT22;2532;52.480;13.354;2022-08-11T16:03:08;33.70;29.20
5027;DHT22;2532;52.480;13.354;2022-08-11T16:05:54;33.70;29.10
5027;DHT22;2532;52.480;13.354;2022-08-11T16:08:22;33.80;29.20
5027;DHT22;2532;52.480;13.354;2022-08-11T16:10:52;33.90;29.10
5027;DHT22;2532;52.480;13.354;2022-08-11T16:13:21;34.20;28.60
5027;DHT22;2532;52.480;13.354;2022-08-11T16:16:11;34.30;28.80
5027;DHT22;2532;52.480;13.354;2022-08-11T16:18:45;34.50;28.60
5027;DHT22;2532;52.480;13.354;2022-08-11T16:21:16;34.60;28.20
5027;DHT22;2532;52.480;13.354;2022-08-11T16:23:46;34.50;28.10
5027;DHT22;2532;52.480;13.354;2022-08-11T16:26:17;34.30;27.90
5027;DHT22;2532;52.480;13.354;2022-08-11T16:28:45;34.10;27.90
5027;DHT22;2532;52.480;13.354;2022-08-11T16:31:15;34.00;27.90
5027;DHT22;2532;52.480;13.354;2022-08-11T16:33:42;34.00;27.80
5027;DHT22;2532;52.480;13.354;2022-08-11T16:36:12;34.20;28.50
5027;DHT22;2532;52.480;13.354;2022-08-11T16:38:58;34.30;27.90
5027;DHT22;2532;52.480;13.354;2022-08-11T16:41:30;34.40;27.20
5027;DHT22;2532;52.480;13.354;2022-08-11T16:44:17;34.40;27.60
5027;DHT22;2532;52.480;13.354;2022-08-11T16:47:03;34.40;27.50
5027;DHT22;2532;52.480;13.354;2022-08-11T16:49:32;34.30;27.90
5027;DHT22;2532;52.480;13.354;2022-08-11T16:52:00;34.40;27.70
5027;DHT22;2532;52.480;13.354;2022-08-11T16:54:31;34.40;27.90
5027;DHT22;2532;52.480;13.354;2022-08-11T16:57:01;34.70;28.30
5027;DHT22;2532;52.480;13.354;2022-08-11T16:59:43;35.00;27.40
5027;DHT22;2532;52.480;13.354;2022-08-11T17:02:14;35.30;27.80
5027;DHT22;2532;52.480;13.354;2022-08-11T17:05:08;35.60;27.10
5027;DHT22;2532;52.480;13.354;2022-08-11T17:07:54;35.70;26.60
5027;DHT22;2532;52.480;13.354;2022-08-11T17:10:43;35.60;26.30
5027;DHT22;2532;52.480;13.354;2022-08-11T17:13:40;35.40;26.70
5027;DHT22;2532;52.480;13.354;2022-08-11T17:16:11;35.20;26.60
5027;DHT22;2532;52.480;13.354;2022-08-11T17:18:48;35.10;26.60
5027;DHT22;2532;52.480;13.354;2022-08-11T17:21:18;35.10;26.60
5027;DHT22;2532;52.480;13.354;2022-08-11T17:23:49;35.00;26.90